Proberta, California
Current Conditions -  °F | °C
As of 4:54 AM on Tuesday 21 Oct 2014 (Local Time) from KRBL Reporting Station
Clear Clear  
Wind Chill: 44°   Ceiling: Unl
Heat Index: 47°   Visibility: 10mi
Dew Point: 40°   Wind: 6mph
Humidity: 77%   Direction: 310°NW
Pressure: 30.1"   Gusts: NA
Location:  40.08°N, 122.17°W
Report Text: KRBL 211154Z AUTO 31005KT 10SM CLR 08/04 A3010 RMK AO2 SLP192 70006 T00830044 10139 20072 51019
Loading
Personal Weather Stations






























Interactive Weather Map
Tropical Storm Tracking
New forecast layout! Learn more

10-Day Weather Forecast

Advertisements
Track Severe Weather on mobile